createdAt,value
2019-04-25T00:00:26.599Z,89.12
2019-04-25T00:01:26.558Z,89.06
2019-04-25T00:02:26.525Z,89.12
2019-04-25T00:03:26.587Z,88.92
2019-04-25T00:04:26.530Z,89.03
2019-04-25T00:05:26.498Z,89.12
2019-04-25T00:06:26.469Z,88.92
2019-04-25T00:07:26.480Z,89.06
2019-04-25T00:08:26.569Z,89.27
2019-04-25T00:09:26.537Z,89.23
2019-04-25T00:10:26.430Z,89.23
2019-04-25T00:11:26.455Z,89.12
2019-04-25T00:12:26.438Z,89.17
2019-04-25T00:13:26.473Z,89.27
2019-04-25T00:14:26.385Z,89.06
2019-04-25T00:15:26.381Z,89.37
2019-04-25T00:16:26.517Z,89.06
2019-04-25T00:17:26.405Z,89.06
2019-04-25T00:18:26.344Z,89.27
2019-04-25T00:19:26.400Z,89.27
2019-04-25T00:20:26.351Z,88.86
2019-04-25T00:21:26.308Z,89.42
2019-04-25T00:22:26.316Z,89.31
2019-04-25T00:23:26.368Z,90.09
2019-04-25T00:24:26.292Z,90.13
2019-04-25T00:25:26.321Z,89.72
2019-04-25T00:26:26.286Z,89.78
2019-04-25T00:27:26.241Z,90.23
2019-04-25T00:28:26.222Z,89.92
2019-04-25T00:29:26.258Z,89.89
2019-04-25T00:30:26.255Z,89.92
2019-04-25T00:31:26.276Z,89.37
2019-04-25T00:32:26.211Z,89.11
2019-04-25T00:33:26.249Z,89.42
2019-04-25T00:34:26.179Z,89.27
2019-04-25T00:35:26.321Z,88.90
2019-04-25T00:36:26.155Z,89.06
2019-04-25T00:37:26.168Z,89.83
2019-04-25T00:38:26.163Z,89.11
2019-04-25T00:39:26.133Z,89.31
2019-04-25T00:40:26.130Z,89.62
2019-04-25T00:41:26.106Z,89.31
2019-04-25T00:42:26.104Z,90.13
2019-04-25T00:43:26.237Z,90.13
2019-04-25T00:44:26.100Z,90.44
2019-04-25T00:45:26.046Z,89.78
2019-04-25T00:46:26.058Z,89.72
2019-04-25T00:47:26.016Z,89.31
2019-04-25T00:48:26.084Z,88.90
2019-04-25T00:49:26.036Z,89.21
2019-04-25T00:50:26.003Z,89.21
2019-04-25T00:51:25.995Z,89.42
2019-04-25T00:52:25.967Z,89.31
2019-04-25T00:53:25.974Z,89.21
2019-04-25T00:54:26.006Z,89.42
2019-04-25T00:55:28.809Z,89.36
2019-04-25T00:56:26.513Z,89.21
2019-04-25T00:57:25.916Z,89.31
2019-04-25T00:58:25.904Z,89.11
2019-04-25T00:59:26.001Z,89.25
2019-04-25T01:00:25.959Z,89.56
2019-04-25T01:01:25.875Z,89.36
2019-04-25T01:02:25.920Z,89.36
2019-04-25T01:03:25.859Z,89.25
2019-04-25T01:04:25.889Z,89.11
2019-04-25T01:05:25.828Z,89.45
2019-04-25T01:06:25.873Z,89.36
2019-04-25T01:07:25.877Z,89.25
2019-04-25T01:08:25.800Z,89.25
2019-04-25T01:09:37.586Z,89.56
2019-04-25T01:10:26.576Z,90.07
2019-04-25T01:11:25.794Z,89.45
2019-04-25T01:12:25.962Z,89.45
2019-04-25T01:13:25.731Z,89.25
2019-04-25T01:14:25.795Z,89.15
2019-04-25T01:15:26.521Z,89.36
2019-04-25T01:16:25.732Z,89.36
2019-04-25T01:17:25.708Z,89.87
2019-04-25T01:18:27.331Z,89.97
2019-04-25T01:19:25.684Z,89.66
2019-04-25T01:20:25.668Z,90.48
2019-04-25T01:21:25.654Z,90.17
2019-04-25T01:22:25.657Z,89.97
2019-04-25T01:23:25.644Z,89.25
2019-04-25T01:24:25.663Z,89.29
2019-04-25T01:25:25.627Z,89.39
2019-04-25T01:26:25.599Z,89.60
2019-04-25T01:27:25.597Z,90.01
2019-04-25T01:28:25.591Z,89.81
2019-04-25T01:29:25.589Z,90.52
2019-04-25T01:30:25.645Z,90.22
2019-04-25T01:31:25.563Z,90.42
2019-04-25T01:32:25.551Z,89.70
2019-04-25T01:33:25.540Z,90.32
2019-04-25T01:34:25.827Z,89.90
2019-04-25T01:35:25.539Z,89.90
2019-04-25T01:36:25.494Z,90.52
2019-04-25T01:37:25.818Z,89.90
2019-04-25T01:38:25.466Z,90.01
2019-04-25T01:39:25.527Z,89.81
2019-04-25T01:40:25.445Z,89.81
2019-04-25T01:41:25.459Z,89.81
2019-04-25T01:42:25.476Z,89.95
2019-04-25T01:43:25.403Z,90.83
2019-04-25T01:44:25.433Z,90.62
2019-04-25T01:45:25.396Z,90.62
2019-04-25T01:46:25.399Z,90.73
2019-04-25T01:47:25.402Z,90.77
2019-04-25T01:48:25.372Z,90.62
2019-04-25T01:49:25.414Z,90.01
2019-04-25T01:50:25.363Z,89.90
2019-04-25T01:51:25.326Z,90.22
2019-04-25T01:52:25.308Z,89.70
2019-04-25T01:53:25.361Z,90.01
2019-04-25T01:54:25.403Z,90.62
2019-04-25T01:55:25.452Z,90.67
2019-04-25T01:56:25.261Z,90.56
2019-04-25T01:57:25.259Z,90.32
2019-04-25T01:58:25.293Z,89.95
2019-04-25T01:59:25.276Z,89.84
2019-04-25T02:00:25.234Z,89.95
2019-04-25T02:01:25.229Z,90.56
2019-04-25T02:02:25.206Z,90.26
2019-04-25T02:03:27.092Z,90.42
2019-04-25T02:04:25.230Z,90.36
2019-04-25T02:05:25.170Z,90.56
2019-04-25T02:06:25.151Z,90.22
2019-04-25T02:07:25.134Z,90.56
2019-04-25T02:08:25.366Z,89.50
2019-04-25T02:09:25.136Z,89.54
2019-04-25T02:10:25.160Z,89.54
2019-04-25T02:11:25.312Z,89.03
2019-04-25T02:12:25.080Z,89.39
2019-04-25T02:13:25.109Z,89.13
2019-04-25T02:14:25.133Z,89.13
2019-04-25T02:15:25.071Z,88.88
2019-04-25T02:16:25.088Z,88.72
2019-04-25T02:17:25.041Z,88.62
2019-04-25T02:18:25.042Z,89.43
2019-04-25T02:19:25.021Z,88.92
2019-04-25T02:20:25.005Z,89.33
2019-04-25T02:21:25.037Z,89.13
2019-04-25T02:22:25.012Z,89.09
2019-04-25T02:23:24.959Z,88.98
2019-04-25T02:24:24.959Z,88.98
2019-04-25T02:25:24.992Z,89.09
2019-04-25T02:26:24.925Z,88.88
2019-04-25T02:27:24.944Z,88.98
2019-04-25T02:28:24.976Z,88.57
2019-04-25T02:29:24.911Z,88.17
2019-04-25T02:30:25.518Z,88.17
2019-04-25T02:31:24.896Z,87.96
2019-04-25T02:32:25.051Z,87.96
2019-04-25T02:33:24.867Z,88.17
2019-04-25T02:34:25.168Z,87.76
2019-04-25T02:35:26.464Z,87.96
2019-04-25T02:36:24.829Z,87.65
2019-04-25T02:37:25.716Z,87.71
2019-04-25T02:38:25.535Z,87.61
2019-04-25T02:39:24.836Z,87.71
2019-04-25T02:40:25.532Z,87.20
2019-04-25T02:41:25.109Z,86.99
2019-04-25T02:42:24.854Z,86.90
2019-04-25T02:43:24.738Z,86.38
2019-04-25T02:44:24.869Z,86.69
2019-04-25T02:45:24.720Z,86.38
2019-04-25T02:46:24.902Z,86.48
2019-04-25T02:47:24.953Z,86.48
2019-04-25T02:48:24.677Z,85.97
2019-04-25T02:49:33.060Z,85.97
2019-04-25T02:50:25.723Z,85.97
2019-04-25T02:51:24.654Z,86.07
2019-04-25T02:52:24.900Z,86.28
2019-04-25T02:53:24.645Z,85.42
2019-04-25T02:54:24.723Z,85.93
2019-04-25T02:55:31.790Z,85.97
2019-04-25T02:56:31.177Z,85.83
2019-04-25T02:57:25.589Z,86.04
2019-04-25T02:58:24.599Z,84.80
2019-04-25T02:59:25.327Z,84.60
2019-04-25T03:00:25.041Z,84.09
2019-04-25T03:01:26.113Z,84.29
2019-04-25T03:02:24.863Z,85.42
2019-04-25T03:03:24.690Z,84.80
2019-04-25T03:04:24.529Z,84.15
2019-04-25T03:05:25.530Z,84.39
2019-04-25T03:06:25.086Z,84.80
2019-04-25T03:07:24.862Z,84.19
2019-04-25T03:08:24.669Z,84.60
2019-04-25T03:09:25.053Z,84.50
2019-04-25T03:10:26.955Z,84.60
2019-04-25T03:11:24.648Z,84.70
2019-04-25T03:12:30.726Z,85.01
2019-04-25T03:13:25.414Z,84.70
2019-04-25T03:14:26.705Z,83.98
2019-04-25T03:15:24.540Z,84.70
2019-04-25T03:16:25.141Z,84.80
2019-04-25T03:17:24.799Z,84.39
2019-04-25T03:18:24.901Z,84.50
2019-04-25T03:19:26.212Z,84.09
2019-04-25T03:20:24.601Z,83.58
2019-04-25T03:21:24.964Z,84.60
2019-04-25T03:22:26.556Z,84.39
2019-04-25T03:23:24.527Z,83.78
2019-04-25T03:24:25.075Z,84.29
2019-04-25T03:25:24.947Z,84.09
2019-04-25T03:26:24.266Z,83.37
2019-04-25T03:27:25.360Z,83.37
2019-04-25T03:28:24.282Z,84.39
2019-04-25T03:29:24.809Z,83.17
2019-04-25T03:30:25.528Z,83.37
2019-04-25T03:31:27.169Z,83.58
2019-04-25T03:32:25.693Z,83.64
2019-04-25T03:33:25.946Z,82.96
2019-04-25T03:34:25.328Z,82.86
2019-04-25T03:35:24.179Z,83.27
2019-04-25T03:36:24.154Z,83.13
2019-04-25T03:37:24.210Z,82.82
2019-04-25T03:38:24.313Z,83.06
2019-04-25T03:39:26.947Z,83.06
2019-04-25T03:40:24.202Z,82.96
2019-04-25T03:41:24.545Z,83.17
2019-04-25T03:42:24.115Z,83.17
2019-04-25T03:43:24.094Z,83.06
2019-04-25T03:44:25.342Z,82.65
2019-04-25T03:45:24.087Z,83.13
2019-04-25T03:46:24.075Z,83.06
2019-04-25T03:47:24.035Z,82.76
2019-04-25T03:48:25.220Z,82.45
2019-04-25T03:49:24.051Z,82.65
2019-04-25T03:50:24.137Z,82.35
2019-04-25T03:51:24.140Z,82.62
2019-04-25T03:52:24.003Z,82.35
2019-04-25T03:53:24.034Z,82.35
2019-04-25T03:54:23.981Z,82.65
2019-04-25T03:55:24.140Z,82.65
2019-04-25T03:56:24.913Z,81.79
2019-04-25T03:57:23.923Z,81.94
2019-04-25T03:58:24.039Z,82.35
2019-04-25T03:59:23.903Z,81.63
2019-04-25T04:00:24.153Z,81.08
2019-04-25T04:01:25.114Z,81.08
2019-04-25T04:02:23.919Z,81.94
2019-04-25T04:03:23.867Z,80.81
2019-04-25T04:04:23.917Z,81.38
2019-04-25T04:05:23.839Z,81.43
2019-04-25T04:06:24.113Z,81.43
2019-04-25T04:07:23.953Z,81.01
2019-04-25T04:08:24.256Z,82.04
2019-04-25T04:09:24.183Z,80.91
2019-04-25T04:10:23.781Z,81.12
2019-04-25T04:11:23.877Z,80.60
2019-04-25T04:12:24.310Z,80.81
2019-04-25T04:13:24.341Z,81.12
2019-04-25T04:14:24.081Z,81.12
2019-04-25T04:15:25.075Z,81.01
2019-04-25T04:16:23.710Z,81.22
2019-04-25T04:17:23.811Z,81.12
2019-04-25T04:18:26.830Z,81.32
2019-04-25T04:19:23.997Z,80.60
2019-04-25T04:20:23.730Z,81.01
2019-04-25T04:21:23.659Z,80.51
2019-04-25T04:22:24.111Z,80.71
2019-04-25T04:23:23.696Z,80.71
2019-04-25T04:24:25.797Z,80.91
2019-04-25T04:25:23.704Z,80.36
2019-04-25T04:26:23.673Z,79.68
2019-04-25T04:27:24.019Z,80.30
2019-04-25T04:28:23.670Z,80.71
2019-04-25T04:29:25.137Z,79.89
2019-04-25T04:30:24.175Z,80.30
2019-04-25T04:31:23.628Z,80.60
2019-04-25T04:32:24.198Z,80.51
2019-04-25T04:33:31.764Z,80.40
2019-04-25T04:34:24.535Z,80.67
2019-04-25T04:35:23.655Z,81.01
2019-04-25T04:36:23.798Z,80.30
2019-04-25T04:37:23.714Z,80.60
2019-04-25T04:38:24.105Z,80.57
2019-04-25T04:39:23.606Z,80.77
2019-04-25T04:40:24.267Z,80.46
2019-04-25T04:41:23.990Z,80.46
2019-04-25T04:42:23.840Z,79.27
2019-04-25T04:43:23.899Z,79.38
2019-04-25T04:44:24.113Z,80.16
2019-04-25T04:45:23.405Z,80.57
2019-04-25T04:46:24.054Z,80.57
2019-04-25T04:47:23.701Z,80.91
2019-04-25T04:48:23.358Z,80.51
2019-04-25T04:49:23.807Z,79.68
2019-04-25T04:50:25.225Z,80.16
2019-04-25T04:51:23.491Z,79.96
2019-04-25T04:52:25.486Z,80.16
2019-04-25T04:53:23.568Z,80.40
2019-04-25T04:54:23.301Z,80.36
2019-04-25T04:55:23.334Z,80.05
2019-04-25T04:56:25.472Z,80.16
2019-04-25T04:57:28.891Z,80.16
2019-04-25T04:58:25.153Z,79.75
2019-04-25T04:59:24.674Z,80.46
2019-04-25T05:00:24.637Z,80.16
2019-04-25T05:01:24.742Z,80.05
2019-04-25T05:02:23.577Z,79.71
2019-04-25T05:03:24.270Z,80.46
2019-04-25T05:04:25.107Z,79.54
2019-04-25T05:05:24.657Z,79.24
2019-04-25T05:06:24.003Z,78.79
2019-04-25T05:07:23.730Z,78.89
2019-04-25T05:08:24.788Z,78.59
2019-04-25T05:09:23.851Z,78.89
2019-04-25T05:10:23.735Z,79.00
2019-04-25T05:11:25.316Z,78.89
2019-04-25T05:12:24.104Z,78.79
2019-04-25T05:13:24.252Z,79.30
2019-04-25T05:14:23.876Z,78.79
2019-04-25T05:15:24.838Z,79.20
2019-04-25T05:16:23.818Z,78.08
2019-04-25T05:17:23.741Z,78.24
2019-04-25T05:18:36.513Z,77.63
2019-04-25T05:19:24.114Z,78.45
2019-04-25T05:20:24.216Z,78.34
2019-04-25T05:21:23.060Z,77.32
2019-04-25T05:23:24.909Z,77.83
2019-04-25T05:24:25.009Z,77.73
2019-04-25T05:25:24.537Z,77.39
2019-04-25T05:26:24.661Z,77.73
2019-04-25T05:27:35.738Z,77.59
2019-04-25T05:28:24.673Z,77.90
2019-04-25T05:29:24.158Z,77.39
2019-04-25T05:30:23.624Z,77.80
2019-04-25T05:31:25.407Z,77.49
2019-04-25T05:32:24.973Z,78.00
2019-04-25T05:33:24.267Z,77.90
2019-04-25T05:34:24.688Z,78.00
2019-04-25T05:35:24.337Z,77.90
2019-04-25T05:36:23.866Z,76.47
2019-04-25T05:37:25.254Z,77.19
2019-04-25T05:38:24.327Z,76.88
2019-04-25T05:39:24.040Z,77.90
2019-04-25T05:40:24.435Z,77.59
2019-04-25T05:41:24.411Z,76.98
2019-04-25T05:42:24.514Z,77.49
2019-04-25T05:43:24.477Z,76.88
2019-04-25T05:44:24.512Z,77.29
2019-04-25T05:45:23.835Z,76.94
2019-04-25T05:46:23.706Z,76.84
2019-04-25T05:47:25.646Z,76.64
2019-04-25T05:48:24.967Z,76.12
2019-04-25T05:49:24.299Z,76.23
2019-04-25T05:50:24.247Z,76.74
2019-04-25T05:51:23.938Z,76.50
2019-04-25T05:52:24.280Z,76.40
2019-04-25T05:53:24.146Z,75.68
2019-04-25T05:54:24.501Z,75.27
2019-04-25T05:55:24.159Z,75.17
2019-04-25T05:56:25.820Z,75.78
2019-04-25T05:57:23.902Z,75.37
2019-04-25T05:58:24.576Z,75.27
2019-04-25T05:59:24.864Z,75.07
2019-04-25T06:00:24.692Z,75.37
2019-04-25T06:01:22.905Z,75.27
2019-04-25T06:02:24.483Z,75.58
2019-04-25T06:03:24.815Z,75.07
2019-04-25T06:04:24.614Z,75.07
2019-04-25T06:05:23.417Z,74.76
2019-04-25T06:06:23.672Z,75.07
2019-04-25T06:07:24.615Z,75.58
2019-04-25T06:08:25.180Z,75.54
2019-04-25T06:09:24.069Z,75.04
2019-04-25T06:10:22.491Z,74.73
2019-04-25T06:11:23.915Z,74.90
2019-04-25T06:12:23.734Z,74.52
2019-04-25T06:13:23.858Z,74.49
2019-04-25T06:14:24.020Z,73.67
2019-04-25T06:15:24.043Z,74.29
2019-04-25T06:16:24.257Z,73.77
2019-04-25T06:17:24.745Z,72.65
2019-04-25T06:18:24.792Z,72.65
2019-04-25T06:19:24.318Z,72.34
2019-04-25T06:20:23.578Z,73.06
2019-04-25T06:21:23.597Z,72.31
2019-04-25T06:22:24.351Z,72.21
2019-04-25T06:23:22.926Z,73.03
2019-04-25T06:24:24.357Z,73.03
2019-04-25T06:25:24.534Z,73.13
2019-04-25T06:26:34.079Z,71.97
2019-04-25T06:27:24.342Z,71.15
2019-04-25T06:28:23.684Z,71.23
2019-04-25T06:29:23.694Z,70.82
2019-04-25T06:30:22.649Z,70.72
2019-04-25T06:31:24.050Z,71.63
2019-04-25T06:32:23.190Z,70.41
2019-04-25T06:33:24.558Z,70.00
2019-04-25T06:34:22.221Z,70.41
2019-04-25T06:35:24.474Z,69.70
2019-04-25T06:36:22.867Z,70.72
2019-04-25T06:37:24.547Z,70.92
2019-04-25T06:38:24.856Z,69.26
2019-04-25T06:39:24.394Z,69.76
2019-04-25T06:40:23.910Z,69.87
2019-04-25T06:41:22.123Z,70.78
2019-04-25T06:42:23.054Z,70.17
2019-04-25T06:43:24.572Z,70.48
2019-04-25T06:44:24.084Z,69.36
2019-04-25T06:45:22.818Z,69.87
2019-04-25T06:46:22.875Z,68.95
2019-04-25T06:47:22.608Z,68.95
2019-04-25T06:48:23.035Z,69.46
2019-04-25T06:49:24.374Z,68.44
2019-04-25T06:50:23.078Z,68.54
2019-04-25T06:51:22.414Z,68.85
2019-04-25T06:52:26.107Z,69.46
2019-04-25T06:53:24.728Z,70.07
2019-04-25T06:54:25.028Z,70.07
2019-04-25T06:55:23.657Z,70.28
2019-04-25T06:56:24.048Z,70.48
2019-04-25T06:57:22.139Z,70.48
2019-04-25T06:58:23.290Z,69.76
2019-04-25T06:59:24.931Z,69.97
2019-04-25T07:00:24.271Z,70.38
2019-04-25T07:01:24.655Z,69.97
2019-04-25T07:02:22.733Z,69.26
2019-04-25T07:03:22.802Z,69.46
2019-04-25T07:04:22.771Z,68.75
2019-04-25T07:05:28.979Z,68.75
2019-04-25T07:06:24.894Z,69.84
2019-04-25T07:07:24.278Z,69.06
2019-04-25T07:08:23.151Z,69.26
2019-04-25T07:09:24.387Z,70.55
2019-04-25T07:10:24.184Z,68.41
2019-04-25T07:11:21.820Z,69.43
2019-04-25T07:12:24.956Z,69.40
2019-04-25T07:13:24.697Z,68.71
2019-04-25T07:14:21.782Z,69.29
2019-04-25T07:15:21.736Z,68.79
2019-04-25T07:16:24.042Z,68.88
2019-04-25T07:17:21.759Z,68.27
2019-04-25T07:18:21.699Z,67.46
2019-04-25T07:19:21.704Z,68.35
2019-04-25T07:20:21.685Z,67.22
2019-04-25T07:21:23.162Z,66.92
2019-04-25T07:22:21.702Z,67.02
2019-04-25T07:23:23.508Z,67.43
2019-04-25T07:24:21.679Z,68.75
2019-04-25T07:25:21.629Z,67.22
2019-04-25T07:26:21.687Z,67.02
2019-04-25T07:27:21.637Z,67.19
2019-04-25T07:28:24.113Z,67.91
2019-04-25T07:29:21.603Z,66.58
2019-04-25T07:30:31.885Z,66.89
2019-04-25T07:31:24.978Z,67.50
2019-04-25T07:32:21.538Z,67.10
2019-04-25T07:33:21.534Z,67.19
2019-04-25T07:34:21.520Z,66.18
2019-04-25T07:35:21.518Z,66.99
2019-04-25T07:36:23.170Z,68.01
2019-04-25T07:37:21.495Z,67.53
2019-04-25T07:38:21.492Z,66.49
2019-04-25T07:39:23.539Z,66.79
2019-04-25T07:40:21.464Z,66.18
2019-04-25T07:41:21.456Z,66.18
2019-04-25T07:42:21.638Z,66.89
2019-04-25T07:43:21.422Z,66.79
2019-04-25T07:44:33.739Z,67.10
2019-04-25T07:45:23.834Z,67.71
2019-04-25T07:46:21.393Z,65.97
2019-04-25T07:47:21.423Z,66.08
2019-04-25T07:48:22.758Z,65.47
2019-04-25T07:49:21.364Z,66.99
2019-04-25T07:50:21.370Z,67.40
2019-04-25T07:51:21.379Z,66.69
2019-04-25T07:52:21.323Z,66.79
2019-04-25T07:53:21.318Z,66.58
2019-04-25T07:54:21.308Z,66.38
2019-04-25T07:55:21.293Z,67.22
2019-04-25T07:56:21.362Z,66.08
2019-04-25T07:57:21.312Z,65.26
2019-04-25T07:58:21.467Z,65.57
2019-04-25T07:59:21.252Z,66.08
2019-04-25T08:00:21.229Z,67.19
2019-04-25T08:01:21.228Z,67.30
2019-04-25T08:02:21.327Z,67.30
2019-04-25T08:03:21.203Z,66.08
2019-04-25T08:04:21.191Z,65.47
2019-04-25T08:05:21.189Z,64.86
2019-04-25T08:06:22.690Z,65.36
2019-04-25T08:07:21.209Z,65.47
2019-04-25T08:08:21.177Z,65.47
2019-04-25T08:09:21.260Z,65.06
2019-04-25T08:10:21.128Z,65.36
2019-04-25T08:11:21.125Z,64.83
2019-04-25T08:12:21.105Z,65.13
2019-04-25T08:13:21.081Z,64.93
2019-04-25T08:14:21.143Z,64.93
2019-04-25T08:15:21.085Z,65.61
2019-04-25T08:16:21.075Z,65.33
2019-04-25T08:17:21.070Z,64.59
2019-04-25T08:18:23.403Z,64.49
2019-04-25T08:19:21.030Z,64.87
2019-04-25T08:20:21.059Z,64.56
2019-04-25T08:21:21.007Z,64.06
2019-04-25T08:22:20.989Z,65.27
2019-04-25T08:23:20.979Z,63.62
2019-04-25T08:24:20.998Z,63.01
2019-04-25T08:25:21.136Z,63.92
2019-04-25T08:26:20.950Z,63.79
2019-04-25T08:27:20.944Z,62.98
2019-04-25T08:28:20.925Z,62.57
2019-04-25T08:29:23.064Z,61.16
2019-04-25T08:30:20.967Z,61.46
2019-04-25T08:31:20.904Z,60.85
2019-04-25T08:32:20.891Z,61.46
2019-04-25T08:33:20.877Z,61.39
2019-04-25T08:34:20.859Z,62.68
2019-04-25T08:35:20.853Z,62.07
2019-04-25T08:36:20.894Z,62.57
2019-04-25T08:37:21.229Z,62.68
2019-04-25T08:38:20.813Z,61.36
2019-04-25T08:39:20.806Z,62.71
2019-04-25T08:40:20.797Z,61.56
2019-04-25T08:41:21.662Z,61.59
2019-04-25T08:42:20.819Z,61.99
2019-04-25T08:43:20.763Z,62.10
2019-04-25T08:44:20.742Z,61.49
2019-04-25T08:45:20.771Z,61.90
2019-04-25T08:46:20.741Z,62.71
2019-04-25T08:47:20.710Z,61.39
2019-04-25T08:48:20.736Z,61.59
2019-04-25T08:49:20.863Z,61.99
2019-04-25T08:50:29.080Z,61.39
2019-04-25T08:51:23.306Z,61.59
2019-04-25T08:52:20.724Z,61.16
2019-04-25T08:53:20.675Z,61.76
2019-04-25T08:54:20.640Z,60.85
2019-04-25T08:55:20.627Z,61.18
2019-04-25T08:56:20.645Z,61.66
2019-04-25T08:57:20.619Z,61.76
2019-04-25T08:58:20.588Z,62.78
2019-04-25T08:59:32.770Z,61.16
2019-04-25T09:00:21.573Z,61.87
2019-04-25T09:01:20.593Z,62.57
2019-04-25T09:02:20.544Z,62.85
2019-04-25T09:03:20.540Z,63.76
2019-04-25T09:04:20.539Z,62.75
2019-04-25T09:05:20.656Z,62.24
2019-04-25T09:06:20.506Z,62.75
2019-04-25T09:07:20.545Z,62.95
2019-04-25T09:08:20.678Z,61.23
2019-04-25T09:09:20.476Z,61.23
2019-04-25T09:10:20.455Z,61.63
2019-04-25T09:11:20.451Z,62.82
2019-04-25T09:12:20.501Z,62.52
2019-04-25T09:13:20.425Z,62.01
2019-04-25T09:14:20.426Z,61.40
2019-04-25T09:15:20.402Z,61.40
2019-04-25T09:16:20.403Z,61.30
2019-04-25T09:17:20.383Z,61.80
2019-04-25T09:18:20.512Z,62.11
2019-04-25T09:19:20.356Z,61.37
2019-04-25T09:20:20.378Z,61.80
2019-04-25T09:21:20.403Z,61.07
2019-04-25T09:22:20.337Z,61.07
2019-04-25T09:23:20.309Z,61.17
2019-04-25T09:24:20.355Z,61.58
2019-04-25T09:25:20.333Z,61.17
2019-04-25T09:26:20.295Z,60.66
2019-04-25T09:27:20.296Z,60.66
2019-04-25T09:28:20.291Z,61.78
2019-04-25T09:29:20.252Z,61.35
2019-04-25T09:30:20.302Z,61.04
2019-04-25T09:31:20.228Z,60.74
2019-04-25T09:32:20.227Z,60.63
2019-04-25T09:33:20.199Z,60.81
2019-04-25T09:34:20.203Z,60.43
2019-04-25T09:35:20.291Z,60.74
2019-04-25T09:36:20.217Z,60.13
2019-04-25T09:37:20.162Z,59.70
2019-04-25T09:38:20.152Z,60.81
2019-04-25T09:39:20.144Z,59.80
2019-04-25T09:40:20.170Z,59.19
2019-04-25T09:41:20.111Z,60.07
2019-04-25T09:42:20.130Z,58.96
2019-04-25T09:43:20.125Z,60.50
2019-04-25T09:44:20.117Z,59.87
2019-04-25T09:45:20.197Z,60.27
2019-04-25T09:46:20.077Z,60.07
2019-04-25T09:47:20.063Z,59.06
2019-04-25T09:48:20.085Z,59.36
2019-04-25T09:49:20.024Z,58.25
2019-04-25T09:50:20.083Z,57.85
2019-04-25T09:51:20.107Z,57.65
2019-04-25T09:52:20.007Z,57.65
2019-04-25T09:53:23.278Z,58.33
2019-04-25T09:54:19.973Z,58.73
2019-04-25T09:55:20.013Z,59.03
2019-04-25T09:56:19.950Z,59.14
2019-04-25T09:57:19.959Z,58.12
2019-04-25T09:58:20.201Z,57.82
2019-04-25T09:59:27.401Z,57.31
2019-04-25T10:00:20.936Z,58.12
2019-04-25T10:01:20.028Z,58.53
2019-04-25T10:02:19.922Z,57.62
2019-04-25T10:03:19.874Z,57.62
2019-04-25T10:04:19.866Z,59.54
2019-04-25T10:05:19.844Z,58.43
2019-04-25T10:06:19.835Z,58.09
2019-04-25T10:07:19.862Z,57.59
2019-04-25T10:08:19.811Z,57.59
2019-04-25T10:09:19.821Z,57.79
2019-04-25T10:10:19.822Z,58.47
2019-04-25T10:11:19.792Z,59.18
2019-04-25T10:12:19.821Z,59.18
2019-04-25T10:13:19.795Z,58.98
2019-04-25T10:14:20.637Z,58.27
2019-04-25T10:15:19.743Z,57.26
2019-04-25T10:16:19.760Z,56.73
2019-04-25T10:17:19.880Z,55.82
2019-04-25T10:18:19.703Z,56.15
2019-04-25T10:19:19.700Z,55.72
2019-04-25T10:20:19.787Z,56.96
2019-04-25T10:21:19.709Z,56.45
2019-04-25T10:22:19.663Z,56.45
2019-04-25T10:23:19.684Z,56.96
2019-04-25T10:24:19.649Z,56.65
2019-04-25T10:25:19.630Z,56.85
2019-04-25T10:26:19.681Z,57.06
2019-04-25T10:27:19.653Z,56.48
2019-04-25T10:28:19.627Z,56.25
2019-04-25T10:29:19.613Z,56.48
2019-04-25T10:30:23.356Z,56.88
2019-04-25T10:31:19.575Z,57.29
2019-04-25T10:32:19.554Z,57.49
2019-04-25T10:33:19.606Z,55.77
2019-04-25T10:34:19.526Z,56.30
2019-04-25T10:35:20.136Z,56.38
2019-04-25T10:36:19.600Z,57.09
2019-04-25T10:37:19.501Z,57.18
2019-04-25T10:38:19.563Z,57.09
2019-04-25T10:39:19.516Z,57.09
2019-04-25T10:40:19.481Z,57.39
2019-04-25T10:41:19.601Z,56.88
2019-04-25T10:42:19.481Z,56.78
2019-04-25T10:43:21.700Z,57.36
2019-04-25T10:44:19.437Z,56.78
2019-04-25T10:45:23.314Z,56.76
2019-04-25T10:46:19.386Z,56.05
2019-04-25T10:47:19.413Z,56.35
2019-04-25T10:48:19.375Z,57.67
2019-04-25T10:49:19.355Z,57.46
2019-04-25T10:50:19.350Z,56.96
2019-04-25T10:51:19.389Z,57.56
2019-04-25T10:52:20.149Z,56.96
2019-04-25T10:53:19.317Z,56.56
2019-04-25T10:54:19.313Z,57.16
2019-04-25T10:55:19.295Z,57.87
2019-04-25T10:56:19.334Z,57.23
2019-04-25T10:57:19.324Z,57.14
2019-04-25T10:58:19.350Z,56.70
2019-04-25T10:59:19.247Z,56.90
2019-04-25T11:00:19.298Z,57.41
2019-04-25T11:01:19.226Z,56.81
2019-04-25T11:02:19.246Z,56.77
2019-04-25T11:03:19.201Z,56.77
2019-04-25T11:04:19.195Z,57.18
2019-04-25T11:05:19.186Z,56.55
2019-04-25T11:06:19.202Z,56.65
2019-04-25T11:07:19.160Z,56.82
2019-04-25T11:08:19.150Z,56.82
2019-04-25T11:09:19.160Z,57.03
2019-04-25T11:10:19.149Z,56.80
2019-04-25T11:11:19.134Z,55.62
2019-04-25T11:12:19.106Z,55.51
2019-04-25T11:13:19.094Z,55.59
2019-04-25T11:14:19.080Z,54.08
2019-04-25T11:15:19.079Z,55.39
2019-04-25T11:16:19.081Z,53.67
2019-04-25T11:17:19.110Z,55.89
2019-04-25T11:18:19.042Z,55.59
2019-04-25T11:19:19.030Z,55.69
2019-04-25T11:20:19.021Z,55.59
2019-04-25T11:21:19.015Z,55.29
2019-04-25T11:22:18.991Z,55.26
2019-04-25T11:23:19.014Z,55.66
2019-04-25T11:24:18.985Z,56.07
2019-04-25T11:25:18.961Z,54.66
2019-04-25T11:26:18.950Z,55.83
2019-04-25T11:27:18.964Z,54.33
2019-04-25T11:28:18.978Z,53.34
2019-04-25T11:29:18.928Z,53.14
2019-04-25T11:30:18.912Z,53.85
2019-04-25T11:31:18.899Z,54.25
2019-04-25T11:32:20.000Z,53.75
2019-04-25T11:33:18.890Z,54.28
2019-04-25T11:34:18.883Z,53.67
2019-04-25T11:35:18.863Z,54.18
2019-04-25T11:36:18.845Z,53.78
2019-04-25T11:37:19.072Z,53.17
2019-04-25T11:38:18.819Z,54.08
2019-04-25T11:39:18.810Z,53.80
2019-04-25T11:40:18.919Z,54.30
2019-04-25T11:41:18.831Z,53.90
2019-04-25T11:42:18.782Z,52.59
2019-04-25T11:43:18.791Z,53.17
2019-04-25T11:44:18.768Z,52.37
2019-04-25T11:45:18.774Z,52.97
2019-04-25T11:46:18.736Z,52.97
2019-04-25T11:47:18.746Z,53.95
2019-04-25T11:48:18.745Z,53.05
2019-04-25T11:49:18.697Z,53.63
2019-04-25T11:50:18.737Z,53.92
2019-04-25T11:51:18.693Z,52.80
2019-04-25T11:52:27.455Z,54.40
2019-04-25T11:53:20.193Z,53.80
2019-04-25T11:54:18.658Z,54.50
2019-04-25T11:55:18.637Z,51.66
2019-04-25T11:56:18.792Z,51.99
2019-04-25T11:57:18.622Z,51.79
2019-04-25T11:58:18.605Z,51.79
2019-04-25T11:59:18.592Z,51.79
2019-04-25T12:00:22.270Z,51.29
2019-04-25T12:01:18.569Z,52.69
2019-04-25T12:02:18.581Z,52.19
2019-04-25T12:03:18.602Z,50.78
2019-04-25T12:04:18.575Z,51.79
2019-04-25T12:05:18.523Z,52.67
2019-04-25T12:06:18.514Z,52.19
2019-04-25T12:07:18.619Z,50.96
2019-04-25T12:08:18.492Z,50.86
2019-04-25T12:09:18.602Z,50.76
2019-04-25T12:10:18.510Z,50.05
2019-04-25T12:11:18.484Z,50.66
2019-04-25T12:12:18.497Z,50.46
2019-04-25T12:13:18.440Z,49.95
2019-04-25T12:14:18.449Z,50.46
2019-04-25T12:15:18.413Z,50.86
2019-04-25T12:16:18.413Z,51.84
2019-04-25T12:17:18.413Z,50.93
2019-04-25T12:18:18.403Z,50.73
2019-04-25T12:19:18.397Z,50.84
2019-04-25T12:20:18.452Z,49.30
2019-04-25T12:21:18.397Z,48.90
2019-04-25T12:22:18.348Z,50.41
2019-04-25T12:23:18.385Z,50.41
2019-04-25T12:24:18.351Z,50.41
2019-04-25T12:25:18.320Z,50.68
2019-04-25T12:26:18.325Z,49.78
2019-04-25T12:27:18.289Z,47.15
2019-04-25T12:28:18.274Z,47.53
2019-04-25T12:29:18.301Z,46.83
2019-04-25T12:30:18.261Z,45.08
2019-04-25T12:31:18.241Z,44.84
2019-04-25T12:32:18.232Z,43.79
2019-04-25T12:33:21.296Z,44.49
2019-04-25T12:34:18.220Z,43.25
2019-04-25T12:35:18.226Z,40.40
2019-04-25T12:36:18.233Z,40.89
2019-04-25T12:37:18.262Z,40.26
2019-04-25T12:38:20.358Z,41.39
2019-04-25T12:39:18.278Z,40.04
2019-04-25T12:40:18.136Z,38.73
2019-04-25T12:41:18.168Z,40.28
2019-04-25T12:42:18.117Z,40.32
2019-04-25T12:43:18.141Z,38.91
2019-04-25T12:44:18.102Z,38.09
2019-04-25T12:45:18.092Z,38.16
2019-04-25T12:46:18.078Z,38.95
2019-04-25T12:47:18.142Z,37.82
2019-04-25T12:48:18.105Z,38.00
2019-04-25T12:49:18.061Z,37.39
2019-04-25T12:50:18.823Z,37.47
2019-04-25T12:51:18.026Z,36.99
2019-04-25T12:52:18.006Z,37.37
2019-04-25T12:53:18.032Z,37.26